Time;durP1;ratioP1;P1;durP2;ratioP2;P2;SDS_P1;SDS_P2;PMS_P1;PMS_P2;Temp;Humidity;BMP_temperature;BMP_pressure;BME280_temperature;BME280_humidity;BME280_pressure;Samples;Min_cycle;Max_cycle;Signal;HPM_P1;HPM_P2
2022/03/25 00:02:09;;;;;;;18.95;11.10;;;;;;;8.44;39.49;100259.66;5128568;27;20031;-29
2022/03/25 00:04:35;;;;;;;18.73;10.27;;;;;;;8.24;40.91;100242.78;5127249;27;20022;-28
2022/03/25 00:07:00;;;;;;;15.48;9.40;;;;;;;8.37;38.42;100253.44;5127242;27;20035;-30
2022/03/25 00:09:26;;;;;;;15.70;9.00;;;;;;;8.43;39.38;100231.41;5128777;27;20395;-29
2022/03/25 00:11:53;;;;;;;19.85;10.10;;;;;;;8.44;39.56;100233.06;5109975;28;20023;-29
2022/03/25 00:14:19;;;;;;;16.60;9.85;;;;;;;8.35;40.50;100231.56;5109802;27;20023;-31
2022/03/25 00:16:45;;;;;;;17.20;9.75;;;;;;;8.13;40.59;100225.59;5128024;27;20423;-31
2022/03/25 00:19:11;;;;;;;15.77;9.93;;;;;;;8.28;40.69;100238.72;5128442;28;20023;-29
2022/03/25 00:21:37;;;;;;;19.17;9.00;;;;;;;8.38;39.27;100228.53;5109822;28;20020;-28
2022/03/25 00:24:02;;;;;;;17.58;8.73;;;;;;;8.71;37.52;100216.34;5128338;28;20019;-33
2022/03/25 00:26:28;;;;;;;13.80;8.20;;;;;;;9.11;36.42;100243.78;5128122;28;20034;-33
2022/03/25 00:28:53;;;;;;;13.85;8.38;;;;;;;9.47;36.39;100237.22;5127856;28;20023;-36
2022/03/25 00:31:20;;;;;;;13.05;7.65;;;;;;;9.36;35.65;100221.88;5109806;28;20033;-30
2022/03/25 00:33:49;;;;;;;15.40;8.13;;;;;;;9.55;35.70;100247.63;5128256;28;20051;-29
2022/03/25 00:36:16;;;;;;;17.70;9.52;;;;;;;9.52;36.91;100242.75;5128368;27;20035;-31
2022/03/25 00:38:42;;;;;;;12.60;7.75;;;;;;;9.55;35.83;100249.50;5109535;28;20122;-29
2022/03/25 00:41:07;;;;;;;14.55;8.27;;;;;;;9.85;34.62;100239.19;5128019;28;20852;-29
2022/03/25 00:43:35;;;;;;;13.50;8.07;;;;;;;9.89;35.52;100251.06;5127894;27;20774;-30
2022/03/25 00:46:01;;;;;;;14.20;8.18;;;;;;;9.62;36.67;100245.78;5128371;27;20091;-28
2022/03/25 00:48:27;;;;;;;13.85;7.60;;;;;;;9.37;36.65;100248.28;5128201;27;20035;-28
2022/03/25 00:50:53;;;;;;;20.02;9.80;;;;;;;9.27;36.70;100225.75;5109234;28;20414;-28
2022/03/25 00:53:19;;;;;;;16.77;8.02;;;;;;;9.43;35.96;100226.16;5109533;28;20027;-30
2022/03/25 00:55:44;;;;;;;13.38;7.90;;;;;;;9.54;35.48;100238.03;5127932;28;20026;-28
2022/03/25 00:58:10;;;;;;;13.45;7.60;;;;;;;9.37;35.48;100210.19;5127682;27;20054;-32
2022/03/25 01:00:36;;;;;;;13.07;8.27;;;;;;;9.44;35.89;100211.03;5109307;28;20578;-30
2022/03/25 01:03:01;;;;;;;12.82;7.40;;;;;;;9.50;35.77;100235.97;5128196;28;20061;-30
2022/03/25 01:05:27;;;;;;;16.95;9.23;;;;;;;9.47;36.16;100242.53;5127853;28;20019;-29
2022/03/25 01:07:52;;;;;;;13.45;8.13;;;;;;;9.48;35.68;100233.53;5128050;27;20027;-29
2022/03/25 01:10:18;;;;;;;16.45;8.25;;;;;;;9.48;35.93;100244.19;5128347;27;20023;-29
2022/03/25 01:12:44;;;;;;;14.40;7.63;;;;;;;9.55;35.41;100238.84;5127643;27;20050;-35
2022/03/25 01:15:10;;;;;;;15.88;8.50;;;;;;;9.59;35.83;100235.53;5127820;28;20031;-28
2022/03/25 01:17:35;;;;;;;14.32;7.63;;;;;;;9.45;35.89;100228.59;5109271;27;20031;-33
2022/03/25 01:20:01;;;;;;;16.42;8.63;;;;;;;9.51;35.48;100221.66;5131581;27;20471;-32
2022/03/25 01:22:26;;;;;;;17.00;7.93;;;;;;;9.62;35.79;100227.16;5113102;27;20104;-31
2022/03/25 01:24:52;;;;;;;13.85;7.57;;;;;;;9.77;35.23;100231.41;5131223;27;20031;-33
2022/03/25 01:27:17;;;;;;;16.63;7.65;;;;;;;9.73;34.98;100198.25;5131281;27;20471;-38
2022/03/25 01:29:43;;;;;;;14.00;8.23;;;;;;;9.85;34.60;100212.53;5131276;27;20566;-33
2022/03/25 01:32:09;;;;;;;15.80;7.88;;;;;;;9.88;35.00;100236.09;5112759;27;20138;-31
2022/03/25 01:34:35;;;;;;;13.18;8.20;;;;;;;9.92;34.57;100233.81;5131388;27;20027;-28
2022/03/25 01:37:01;;;;;;;13.15;7.22;;;;;;;9.94;34.58;100229.09;5129618;27;20034;-29
2022/03/25 01:39:27;;;;;;;12.38;7.90;;;;;;;9.94;34.45;100237.09;5112556;27;20031;-29
2022/03/25 01:41:52;;;;;;;13.48;7.65;;;;;;;9.80;34.75;100215.00;5131119;27;20031;-30
2022/03/25 01:44:29;;;;;;;15.20;8.32;;;;;;;9.84;34.31;100211.69;5131195;27;20456;-29
2022/03/25 01:46:57;;;;;;;14.85;8.60;;;;;;;9.84;34.71;100206.38;5131091;27;20060;-30
2022/03/25 01:49:22;;;;;;;13.80;8.00;;;;;;;9.90;34.41;100220.72;5131073;27;20019;-32
2022/03/25 01:51:51;;;;;;;13.90;7.55;;;;;;;9.84;34.70;100211.69;5131153;27;20640;-29
2022/03/25 01:54:18;;;;;;;14.35;7.60;;;;;;;9.91;34.33;100234.84;5112325;27;20023;-32
2022/03/25 01:56:44;;;;;;;14.13;7.55;;;;;;;9.81;34.62;100232.63;5112379;27;20023;-29
2022/03/25 01:59:10;;;;;;;12.10;7.80;;;;;;;9.73;34.60;100215.03;5131020;27;20546;-30
2022/03/25 02:01:36;;;;;;;15.23;7.85;;;;;;;9.80;34.28;100241.63;5112290;27;20027;-30
2022/03/25 02:04:02;;;;;;;15.45;7.63;;;;;;;9.75;34.11;100212.16;5130951;27;20039;-31
2022/03/25 02:06:27;;;;;;;11.85;7.78;;;;;;;9.92;33.98;100245.28;5130934;27;20035;-31
2022/03/25 02:08:53;;;;;;;12.60;7.40;;;;;;;9.58;34.55;100209.97;5130449;27;20110;-31
2022/03/25 02:11:19;;;;;;;12.82;8.30;;;;;;;9.79;34.39;100213.38;5111818;27;20038;-29
2022/03/25 02:13:45;;;;;;;10.73;7.53;;;;;;;9.74;34.68;100226.50;5130462;27;20463;-34
2022/03/25 02:16:10;;;;;;;15.80;8.32;;;;;;;9.96;34.62;100245.69;5111972;27;20027;-33
2022/03/25 02:18:36;;;;;;;14.00;8.38;;;;;;;9.81;33.99;100240.63;5130434;27;20400;-32
2022/03/25 02:21:01;;;;;;;14.77;7.90;;;;;;;9.89;33.81;100240.41;5130257;27;20087;-29
2022/03/25 02:23:26;;;;;;;13.48;8.63;;;;;;;10.10;33.57;100257.13;5130250;27;20031;-31
2022/03/25 02:25:53;;;;;;;15.32;7.97;;;;;;;10.17;33.47;100257.91;5111497;27;20027;-34
2022/03/25 02:28:19;;;;;;;13.82;8.05;;;;;;;10.10;33.52;100246.47;5111971;27;20031;-29
2022/03/25 02:30:45;;;;;;;12.75;8.07;;;;;;;10.18;33.77;100265.69;5129563;27;20027;-29
2022/03/25 02:33:12;;;;;;;14.60;8.57;;;;;;;10.12;33.63;100255.06;5129706;27;20043;-30
2022/03/25 02:35:40;;;;;;;13.70;8.15;;;;;;;10.17;33.20;100257.91;5130204;27;20079;-34
2022/03/25 02:38:06;;;;;;;;;;;;;;;10.24;34.11;100264.84;5130351;27;20082;-32
2022/03/25 02:40:32;;;;;;;18.10;9.63;;;;;;;9.94;34.15;100242.44;5129892;27;19972;-29
2022/03/25 02:42:57;;;;;;;14.48;9.25;;;;;;;9.98;33.80;100255.09;5130028;27;20023;-28
2022/03/25 02:45:23;;;;;;;17.02;9.02;;;;;;;9.88;34.54;100265.38;5130096;27;20123;-31
2022/03/25 02:47:48;;;;;;;14.75;8.60;;;;;;;9.92;34.44;100266.59;5111458;27;20054;-29
2022/03/25 02:50:14;;;;;;;16.13;9.27;;;;;;;9.85;35.24;100265.81;5129882;27;20491;-28
2022/03/25 02:52:41;;;;;;;15.35;8.27;;;;;;;9.69;35.24;100276.91;5129858;27;20058;-34
2022/03/25 02:55:08;;;;;;;16.67;9.18;;;;;;;9.72;35.67;100271.16;5129789;27;20084;-32
2022/03/25 02:57:34;;;;;;;14.32;8.73;;;;;;;9.57;35.63;100266.06;5111347;27;20031;-28
2022/03/25 02:59:59;;;;;;;14.68;8.27;;;;;;;9.51;34.81;100265.06;5129736;27;20028;-31
2022/03/25 03:02:24;;;;;;;17.52;9.18;;;;;;;9.64;35.26;100274.84;5110994;27;20494;-29
2022/03/25 03:04:50;;;;;;;16.92;9.18;;;;;;;9.51;35.96;100297.00;5129428;27;20532;-29
2022/03/25 03:07:16;;;;;;;16.92;9.27;;;;;;;9.64;35.22;100297.00;5129214;27;20504;-30
2022/03/25 03:09:42;;;;;;;16.70;8.85;;;;;;;9.58;35.94;100335.09;5129609;27;20031;-29
2022/03/25 03:12:07;;;;;;;16.95;9.70;;;;;;;9.32;36.86;100340.41;5111016;27;20030;-32
2022/03/25 03:14:33;;;;;;;17.38;9.48;;;;;;;8.95;36.87;100350.56;5129999;27;20403;-29
2022/03/25 03:16:58;;;;;;;19.50;9.85;;;;;;;9.17;36.98;100357.38;5129131;27;20023;-31
2022/03/25 03:19:24;;;;;;;21.15;9.80;;;;;;;9.14;36.83;100359.63;5129412;27;20027;-29
2022/03/25 03:21:50;;;;;;;17.67;9.25;;;;;;;9.30;35.86;100358.44;5129200;27;20098;-29
2022/03/25 03:24:15;;;;;;;17.33;9.95;;;;;;;9.33;35.09;100323.41;5129392;27;20106;-31
2022/03/25 03:26:40;;;;;;;16.08;9.63;;;;;;;9.80;34.19;100338.34;5128993;27;20044;-29
2022/03/25 03:29:06;;;;;;;17.02;9.00;;;;;;;9.86;34.58;100336.69;5110508;27;20498;-34
2022/03/25 03:31:31;;;;;;;14.88;9.70;;;;;;;9.77;35.41;100361.91;5129057;27;20023;-29
2022/03/25 03:33:57;;;;;;;14.93;9.52;;;;;;;9.43;35.79;100342.47;5128622;27;20055;-29
2022/03/25 03:36:22;;;;;;;17.20;9.73;;;;;;;9.57;35.74;100373.38;5128957;27;20027;-32
2022/03/25 03:38:48;;;;;;;17.23;10.20;;;;;;;9.04;36.83;100354.69;5128364;27;20031;-30
2022/03/25 03:41:13;;;;;;;19.33;9.57;;;;;;;9.53;34.75;100369.50;5128936;27;20065;-28
2022/03/25 03:43:39;;;;;;;17.73;9.65;;;;;;;9.54;34.05;100343.69;5129172;27;20039;-31
2022/03/25 03:46:04;;;;;;;16.25;9.60;;;;;;;9.81;34.32;100349.84;5128866;27;20028;-30
2022/03/25 03:48:31;;;;;;;18.95;10.25;;;;;;;9.74;34.00;100333.03;5128769;27;20031;-29
2022/03/25 03:50:57;;;;;;;17.23;10.45;;;;;;;9.93;34.56;100347.34;5127005;27;20076;-32
2022/03/25 03:53:22;;;;;;;18.00;11.15;;;;;;;9.80;34.29;100343.66;5128586;27;20031;-30
2022/03/25 03:55:47;;;;;;;20.77;12.52;;;;;;;9.37;35.55;100319.31;5110131;27;20050;-30
2022/03/25 03:58:13;;;;;;;24.70;12.82;;;;;;;9.64;34.83;100362.72;5110206;27;20065;-32
2022/03/25 04:00:38;;;;;;;20.02;11.93;;;;;;;9.50;35.14;100358.44;5109967;27;20097;-30
2022/03/25 04:03:06;;;;;;;22.65;12.63;;;;;;;9.80;34.58;100366.81;5128226;27;20039;-29
2022/03/25 04:05:32;;;;;;;17.42;10.98;;;;;;;9.39;34.92;100375.84;5109817;27;20061;-35
2022/03/25 04:07:58;;;;;;;18.83;11.25;;;;;;;9.30;34.76;100374.41;5109948;27;20031;-29
2022/03/25 04:10:23;;;;;;;19.80;10.88;;;;;;;8.85;36.79;100374.91;5127196;27;20475;-34
2022/03/25 04:12:49;;;;;;;18.58;11.30;;;;;;;8.66;36.25;100352.53;5128089;27;20035;-28
2022/03/25 04:15:15;;;;;;;31.88;18.00;;;;;;;8.80;36.34;100354.22;5126877;27;20468;-29
2022/03/25 04:17:43;;;;;;;26.83;15.07;;;;;;;8.90;35.81;100358.34;5109468;28;20076;-31
2022/03/25 04:20:11;;;;;;;27.75;17.08;;;;;;;9.02;36.54;100365.53;5128240;27;20023;-32
2022/03/25 04:22:37;;;;;;;29.30;18.67;;;;;;;8.94;36.44;100357.75;5109737;27;20023;-30
2022/03/25 04:25:05;;;;;;;56.78;32.83;;;;;;;8.88;36.70;100355.88;5127981;27;20025;-30
2022/03/25 04:27:31;;;;;;;39.40;21.20;;;;;;;9.00;36.13;100372.09;5108391;28;20051;-28
2022/03/25 04:29:56;;;;;;;72.07;33.75;;;;;;;8.98;36.98;100382.91;5127977;28;20112;-32
2022/03/25 04:32:22;;;;;;;180.50;62.38;;;;;;;8.98;35.74;100380.25;5128010;28;20077;-28
2022/03/25 04:34:47;;;;;;;161.63;57.88;;;;;;;8.96;37.04;100389.47;5109523;28;20483;-39
2022/03/25 04:37:12;;;;;;;139.48;50.58;;;;;;;9.10;36.44;100399.13;5128071;27;20554;-29
2022/03/25 04:39:39;;;;;;;55.60;24.17;;;;;;;9.17;34.43;100378.66;5128219;27;20463;-30
2022/03/25 04:42:05;;;;;;;84.68;34.97;;;;;;;9.05;36.11;100374.94;5128264;27;20031;-29
2022/03/25 04:44:30;;;;;;;62.33;29.90;;;;;;;9.09;35.59;100389.47;5127795;27;20039;-28
2022/03/25 04:46:56;;;;;;;72.97;32.28;;;;;;;9.08;36.27;100393.19;5127832;28;20487;-30
2022/03/25 04:49:22;;;;;;;357.25;113.28;;;;;;;8.94;36.28;100372.88;5127752;28;20030;-30
2022/03/25 04:51:48;;;;;;;287.45;88.00;;;;;;;9.06;36.22;100387.25;5128012;27;20547;-29
2022/03/25 04:54:14;;;;;;;147.35;50.53;;;;;;;9.10;37.27;100388.47;5130815;27;20030;-28
2022/03/25 04:56:40;;;;;;;62.22;31.00;;;;;;;8.83;37.41;100374.28;5132050;27;20062;-29
2022/03/25 04:59:05;;;;;;;60.15;34.28;;;;;;;8.79;37.65;100384.50;5131949;27;20051;-34
2022/03/25 05:01:31;;;;;;;201.77;111.97;;;;;;;8.69;37.60;100401.84;5131727;27;20042;-29
2022/03/25 05:03:56;;;;;;;112.22;72.13;;;;;;;8.74;37.83;100394.91;5113278;27;20023;-32
2022/03/25 05:06:22;;;;;;;78.07;47.22;;;;;;;8.71;38.16;100382.00;5130190;27;20035;-29
2022/03/25 05:08:47;;;;;;;61.33;38.78;;;;;;;9.07;37.60;100404.00;5131713;27;20047;-40
2022/03/25 05:11:13;;;;;;;64.90;32.35;;;;;;;9.15;36.36;100394.00;5131783;27;20059;-32
2022/03/25 05:13:38;;;;;;;102.05;47.92;;;;;;;9.36;36.75;100410.84;5131789;27;20027;-28
2022/03/25 05:16:04;;;;;;;139.65;64.43;;;;;;;9.15;38.21;100401.97;5131628;27;20126;-29
2022/03/25 05:18:30;;;;;;;231.70;102.97;;;;;;;9.17;36.79;100405.25;5131410;27;20567;-29
2022/03/25 05:20:56;;;;;;;89.05;42.53;;;;;;;9.34;36.94;100412.91;5131029;27;20509;-32
2022/03/25 05:23:22;;;;;;;56.83;31.80;;;;;;;9.36;36.53;100402.88;5131687;27;20027;-30
2022/03/25 05:25:48;;;;;;;51.78;28.40;;;;;;;9.41;36.41;100403.88;5131493;27;20030;-34
2022/03/25 05:28:15;;;;;;;61.88;38.45;;;;;;;9.63;35.35;100409.84;5131330;27;20023;-29
2022/03/25 05:30:41;;;;;;;77.43;47.15;;;;;;;9.63;36.51;100391.22;5131269;27;20034;-30
2022/03/25 05:33:07;;;;;;;116.22;57.33;;;;;;;9.65;36.94;100399.81;5130768;27;20203;-30
2022/03/25 05:35:32;;;;;;;115.72;45.20;;;;;;;9.57;36.93;100413.31;5112606;27;20032;-39
2022/03/25 05:37:58;;;;;;;64.32;28.60;;;;;;;9.76;36.78;100400.22;5131224;27;20023;-30
2022/03/25 05:40:25;;;;;;;22.00;11.35;;;;;;;9.98;32.31;100393.66;5131247;27;20019;-33
2022/03/25 05:42:51;;;;;;;19.60;11.50;;;;;;;10.37;33.07;100402.63;5112373;27;20107;-33
2022/03/25 05:45:19;;;;;;;24.48;13.48;;;;;;;10.04;34.39;100403.47;5112350;27;20069;-30
2022/03/25 05:47:44;;;;;;;21.10;13.80;;;;;;;10.11;35.12;100413.31;5130880;27;20121;-34
2022/03/25 05:50:11;;;;;;;24.55;13.88;;;;;;;10.47;34.19;100423.53;5130676;27;20552;-30
2022/03/25 05:52:38;;;;;;;26.20;13.30;;;;;;;10.84;33.76;100437.97;5112320;27;20038;-29
2022/03/25 05:55:07;;;;;;;18.65;12.35;;;;;;;11.02;34.04;100410.59;5112042;27;20031;-30
2022/03/25 05:57:33;;;;;;;24.65;14.00;;;;;;;10.95;32.70;100404.47;5129439;27;20034;-31
2022/03/25 05:59:59;;;;;;;23.50;13.38;;;;;;;11.23;33.41;100422.78;5130755;27;20027;-32
2022/03/25 06:02:26;;;;;;;18.85;12.05;;;;;;;11.00;33.33;100407.31;5111892;27;20104;-29
2022/03/25 06:04:55;;;;;;;21.95;13.20;;;;;;;10.91;33.01;100413.94;5130542;27;20034;-35
2022/03/25 06:07:22;;;;;;;25.52;12.77;;;;;;;10.98;34.45;100420.06;5130486;27;20399;-29
2022/03/25 06:09:47;;;;;;;21.30;12.07;;;;;;;11.06;33.46;100416.31;5111848;27;20106;-36
2022/03/25 06:12:13;;;;;;;21.15;12.48;;;;;;;11.04;33.73;100413.88;5111979;27;20520;-30
2022/03/25 06:14:39;;;;;;;21.95;11.85;;;;;;;11.35;33.45;100417.59;5130544;27;20033;-30
2022/03/25 06:17:05;;;;;;;26.17;13.13;;;;;;;11.31;33.10;100408.38;5111197;27;20027;-29
2022/03/25 06:19:31;;;;;;;23.45;13.65;;;;;;;11.80;32.28;100419.31;5130557;27;20024;-28
2022/03/25 06:21:57;;;;;;;23.23;13.02;;;;;;;11.89;31.51;100442.13;5111942;27;20586;-29
2022/03/25 06:24:23;;;;;;;21.85;12.05;;;;;;;12.11;32.12;100433.69;5130539;27;20031;-29
2022/03/25 06:26:48;;;;;;;21.77;11.90;;;;;;;12.21;31.37;100428.66;5129831;27;20414;-30
2022/03/25 06:29:14;;;;;;;18.05;10.57;;;;;;;12.04;30.69;100407.03;5130220;27;20031;-29
2022/03/25 06:31:39;;;;;;;17.17;10.38;;;;;;;11.87;29.95;100414.75;5128598;27;20314;-32
2022/03/25 06:34:05;;;;;;;18.48;10.93;;;;;;;11.90;31.11;100405.50;5130181;27;20414;-29
2022/03/25 06:36:31;;;;;;;22.23;9.95;;;;;;;11.96;31.22;100432.16;5130354;27;20088;-28
2022/03/25 06:38:57;;;;;;;24.02;12.25;;;;;;;12.20;32.08;100437.72;5129813;27;20038;-33
2022/03/25 06:41:22;;;;;;;21.52;10.93;;;;;;;12.31;30.24;100428.16;5130121;27;20031;-31
2022/03/25 06:43:49;;;;;;;18.27;10.43;;;;;;;12.25;29.65;100435.19;5129998;27;20066;-32
2022/03/25 06:46:19;;;;;;;20.38;10.70;;;;;;;12.31;31.14;100437.00;5111189;27;20034;-29
2022/03/25 06:48:45;;;;;;;18.73;10.85;;;;;;;12.14;30.30;100422.56;5130038;27;20042;-32
2022/03/25 06:51:10;;;;;;;54.08;29.42;;;;;;;12.32;29.63;100425.25;5129450;27;20027;-29
2022/03/25 06:53:37;;;;;;;32.05;19.20;;;;;;;12.37;28.28;100448.66;5111121;27;20031;-28
2022/03/25 06:56:03;;;;;;;14.70;9.20;;;;;;;12.25;29.57;100427.97;5111200;27;20035;-34
2022/03/25 06:58:29;;;;;;;46.50;25.05;;;;;;;12.77;29.29;100448.22;5110896;27;20027;-36
2022/03/25 07:00:54;;;;;;;28.95;17.10;;;;;;;12.86;28.31;100453.06;5110431;27;20023;-32
2022/03/25 07:03:20;;;;;;;31.10;18.38;;;;;;;12.81;28.61;100434.19;5129721;27;20019;-33
2022/03/25 07:05:46;;;;;;;21.10;9.77;;;;;;;12.70;29.17;100421.53;5129428;27;20395;-30
2022/03/25 07:08:12;;;;;;;18.70;9.60;;;;;;;13.17;30.16;100434.34;5129416;27;20054;-33
2022/03/25 07:10:38;;;;;;;32.72;18.23;;;;;;;13.01;29.46;100433.91;5129455;27;20031;-30
2022/03/25 07:13:04;;;;;;;21.73;12.43;;;;;;;12.91;29.05;100430.16;5127322;27;20110;-31
2022/03/25 07:15:30;;;;;;;21.27;10.80;;;;;;;13.23;29.85;100444.16;5128966;27;20114;-29
2022/03/25 07:17:55;;;;;;;22.42;11.98;;;;;;;13.48;30.84;100427.94;5129187;27;20066;-28
2022/03/25 07:20:25;;;;;;;17.67;11.95;;;;;;;13.19;29.32;100427.72;5129434;27;20055;-30
2022/03/25 07:22:52;;;;;;;22.67;12.07;;;;;;;13.63;29.37;100425.66;5128930;27;20027;-29
2022/03/25 07:25:18;;;;;;;22.80;12.32;;;;;;;13.57;29.52;100423.09;5110413;27;20403;-34
2022/03/25 07:27:45;;;;;;;17.00;10.10;;;;;;;13.45;28.02;100452.53;5128757;27;20111;-32
2022/03/25 07:30:11;;;;;;;29.27;17.52;;;;;;;13.36;28.19;100445.84;5110576;27;20023;-30
2022/03/25 07:32:37;;;;;;;75.63;41.00;;;;;;;13.34;27.40;100421.16;5110121;27;20043;-29
2022/03/25 07:35:03;;;;;;;48.28;28.75;;;;;;;13.64;28.25;100429.97;5128662;27;20038;-29
2022/03/25 07:37:28;;;;;;;67.63;37.92;;;;;;;13.68;27.50;100442.91;5128705;27;20027;-31
2022/03/25 07:39:54;;;;;;;28.38;15.98;;;;;;;13.99;28.06;100439.91;5128835;27;20023;-29
2022/03/25 07:42:19;;;;;;;16.70;9.95;;;;;;;14.05;27.89;100435.50;5128700;27;20054;-32
2022/03/25 07:44:46;;;;;;;36.10;21.65;;;;;;;13.86;27.85;100442.84;5128901;27;20031;-33
2022/03/25 07:47:13;;;;;;;31.00;18.05;;;;;;;13.97;26.84;100436.66;5127148;27;20031;-34
2022/03/25 07:49:40;;;;;;;35.20;19.77;;;;;;;14.17;27.46;100424.78;5128716;27;20592;-29
2022/03/25 07:52:10;;;;;;;33.13;19.98;;;;;;;13.95;26.78;100417.28;5109936;27;20027;-33
2022/03/25 07:54:36;;;;;;;41.78;20.60;;;;;;;14.32;26.67;100429.66;5127029;27;20414;-30
2022/03/25 07:57:02;;;;;;;64.53;30.65;;;;;;;14.55;25.72;100428.84;5109342;28;20031;-29
2022/03/25 07:59:29;;;;;;;36.92;21.48;;;;;;;14.47;26.56;100424.63;5128719;27;20030;-29
2022/03/25 08:01:56;;;;;;;37.17;23.58;;;;;;;14.63;26.84;100428.50;5128448;27;20027;-28
2022/03/25 08:04:24;;;;;;;27.98;15.38;;;;;;;14.72;26.90;100416.31;5128619;27;20038;-29
2022/03/25 08:06:53;;;;;;;19.85;11.35;;;;;;;14.89;27.63;100420.94;5109504;27;20031;-30
2022/03/25 08:09:18;;;;;;;18.33;10.38;;;;;;;14.93;27.77;100411.34;5128390;27;20114;-29
2022/03/25 08:11:47;;;;;;;14.73;9.23;;;;;;;15.26;26.63;100429.44;5128152;27;20110;-30
2022/03/25 08:14:13;;;;;;;19.35;12.80;;;;;;;15.08;25.57;100427.78;5128166;27;20019;-31
2022/03/25 08:16:40;;;;;;;15.02;9.23;;;;;;;15.30;25.83;100427.09;5109855;27;20031;-30
2022/03/25 08:19:06;;;;;;;14.18;8.80;;;;;;;15.46;26.33;100418.22;5109622;27;20482;-31
2022/03/25 08:21:32;;;;;;;13.15;8.40;;;;;;;15.21;25.46;100392.53;5128351;27;20025;-29
2022/03/25 08:29:25;;;;;;;15.43;9.45;;;;;;;15.57;24.59;100409.31;5131661;27;20426;-29
2022/03/25 08:31:51;;;;;;;17.05;9.35;;;;;;;15.80;24.98;100389.53;5132231;27;20023;-30
2022/03/25 08:34:16;;;;;;;16.42;9.10;;;;;;;16.22;24.71;100381.00;5113875;27;20023;-32
2022/03/25 08:36:45;;;;;;;20.25;10.63;;;;;;;16.24;25.00;100400.41;5131975;27;20482;-28
2022/03/25 08:39:11;;;;;;;15.75;9.65;;;;;;;16.62;23.64;100381.75;5131917;27;20409;-30
2022/03/25 08:41:37;;;;;;;17.38;10.13;;;;;;;17.07;23.63;100386.06;5132165;27;20088;-29
2022/03/25 08:44:02;;;;;;;15.32;9.15;;;;;;;16.91;24.89;100400.44;5132342;27;20443;-31
2022/03/25 08:46:28;;;;;;;21.42;11.43;;;;;;;16.97;23.06;100380.56;5132180;27;20027;-30
2022/03/25 08:48:54;;;;;;;21.77;11.05;;;;;;;16.79;24.69;100395.94;5131736;27;20678;-30
2022/03/25 08:51:19;;;;;;;16.92;11.00;;;;;;;17.02;22.83;100389.50;5131905;27;20023;-30
2022/03/25 08:53:45;;;;;;;16.23;10.23;;;;;;;17.26;24.26;100379.25;5132064;27;20041;-31
2022/03/25 08:56:11;;;;;;;21.02;11.52;;;;;;;17.38;23.60;100380.94;5132214;27;20034;-30
2022/03/25 08:58:36;;;;;;;25.50;14.60;;;;;;;17.52;23.88;100395.63;5131835;27;20023;-29
2022/03/25 09:01:02;;;;;;;14.80;9.07;;;;;;;17.31;24.49;100365.00;5131911;27;20035;-31
2022/03/25 09:03:28;;;;;;;14.80;10.00;;;;;;;17.62;23.91;100363.34;5113383;27;20857;-42
2022/03/25 09:05:53;;;;;;;16.17;10.82;;;;;;;17.34;22.89;100379.84;5131981;27;20466;-32
2022/03/25 09:08:19;;;;;;;18.02;10.77;;;;;;;17.75;24.21;100378.28;5131964;27;20486;-29
2022/03/25 09:10:45;;;;;;;14.50;9.13;;;;;;;17.66;23.34;100366.34;5131952;27;20023;-35
2022/03/25 09:13:13;;;;;;;16.90;9.32;;;;;;;18.14;23.76;100367.22;5113018;27;20521;-33
2022/03/25 09:15:38;;;;;;;;;;;;;;;17.94;23.88;100372.50;5113993;27;20023;-29
2022/03/25 09:18:04;;;;;;;16.35;10.13;;;;;;;18.14;23.94;100355.63;5131562;27;20347;-30
2022/03/25 09:20:30;;;;;;;25.73;13.80;;;;;;;18.45;22.21;100346.59;5131326;27;20026;-29
2022/03/25 09:22:55;;;;;;;21.13;12.05;;;;;;;18.64;22.76;100354.22;5131515;27;20027;-29
2022/03/25 09:25:23;;;;;;;26.95;13.85;;;;;;;19.02;22.30;100349.47;5131457;27;20031;-40
2022/03/25 09:27:49;;;;;;;21.33;10.50;;;;;;;19.07;20.55;100342.16;5131772;27;20027;-29
2022/03/25 09:30:15;;;;;;;17.10;10.35;;;;;;;18.53;22.68;100329.06;5112764;27;20043;-30
2022/03/25 09:32:40;;;;;;;16.58;10.20;;;;;;;18.58;22.18;100334.47;5130879;27;20051;-33
2022/03/25 09:35:09;;;;;;;25.90;13.65;;;;;;;18.53;22.84;100341.75;5130981;27;20430;-31
2022/03/25 09:37:44;;;;;;;17.58;10.73;;;;;;;18.77;21.41;100340.19;5112454;27;20090;-29
2022/03/25 09:40:27;;;;;;;18.60;10.52;;;;;;;19.22;21.95;100327.03;5129438;27;20048;-29
2022/03/25 09:42:58;;;;;;;16.95;9.82;;;;;;;19.02;21.94;100335.94;5112180;27;20092;-30
2022/03/25 09:45:26;;;;;;;17.48;10.20;;;;;;;19.20;21.68;100321.91;5130881;27;20027;-35
2022/03/25 09:47:53;;;;;;;28.23;14.40;;;;;;;19.78;21.91;100318.91;5112392;27;20075;-32
2022/03/25 09:50:21;;;;;;;23.95;14.35;;;;;;;20.02;22.36;100324.56;5131130;27;20027;-31
2022/03/25 09:52:47;;;;;;;17.75;10.50;;;;;;;19.93;23.86;100314.56;5112221;27;20066;-43
2022/03/25 09:55:14;;;;;;;20.33;9.82;;;;;;;20.14;20.93;100307.16;5131052;27;20028;-28
2022/03/25 09:57:40;;;;;;;18.70;9.90;;;;;;;20.24;21.25;100299.00;5130623;27;20028;-30
2022/03/25 10:00:08;;;;;;;22.52;12.93;;;;;;;20.38;20.82;100305.44;5130816;27;20035;-30
2022/03/25 10:02:33;;;;;;;15.43;9.45;;;;;;;20.71;19.77;100292.28;5112231;27;20065;-33
2022/03/25 10:04:58;;;;;;;16.48;10.90;;;;;;;20.97;21.35;100305.69;5130619;27;20031;-30
2022/03/25 10:07:33;;;;;;;15.85;10.07;;;;;;;20.95;20.83;100302.44;5130759;27;20498;-30
2022/03/25 10:10:19;;;;;;;14.27;10.38;;;;;;;21.13;20.83;100299.03;5130499;27;20783;-29
2022/03/25 10:12:47;;;;;;;15.60;10.20;;;;;;;20.87;20.43;100290.28;5112107;27;20546;-33
2022/03/25 10:15:28;;;;;;;16.02;10.30;;;;;;;21.35;20.14;100289.63;5111986;27;20422;-29
2022/03/25 10:17:53;;;;;;;19.08;10.90;;;;;;;22.01;19.58;100302.53;5130395;27;20041;-34
2022/03/25 10:20:22;;;;;;;18.25;10.68;;;;;;;21.63;19.36;100305.13;5130515;27;20475;-32
2022/03/25 10:23:08;;;;;;;16.02;11.70;;;;;;;21.94;20.07;100285.78;5129931;27;20023;-32
2022/03/25 10:25:47;;;;;;;16.90;9.70;;;;;;;21.88;21.85;100295.09;5111872;27;20027;-31
2022/03/25 10:28:43;;;;;;;27.33;13.82;;;;;;;22.23;18.98;100298.47;5111823;27;20023;-31
2022/03/25 10:31:14;;;;;;;31.92;14.82;;;;;;;22.56;19.12;100285.06;5129637;27;20035;-30
2022/03/25 10:33:45;;;;;;;19.10;10.95;;;;;;;22.64;19.72;100281.66;5129877;27;20054;-35
2022/03/25 10:36:14;;;;;;;14.85;9.55;;;;;;;22.37;18.72;100277.69;5111530;27;20045;-29
2022/03/25 10:39:04;;;;;;;15.02;9.48;;;;;;;22.45;19.81;100285.19;5111642;27;20031;-30
2022/03/25 10:41:46;;;;;;;16.35;10.95;;;;;;;22.34;18.61;100272.03;5129878;27;20092;-30
2022/03/25 10:44:11;;;;;;;13.13;9.20;;;;;;;22.24;17.71;100267.53;5130080;27;20054;-36
2022/03/25 10:46:42;;;;;;;16.15;9.95;;;;;;;22.29;20.18;100263.94;5129990;27;20031;-29
2022/03/25 10:49:13;;;;;;;16.17;8.45;;;;;;;22.12;20.08;100269.84;5111022;27;20120;-31
2022/03/25 10:51:56;;;;;;;11.90;8.55;;;;;;;22.46;17.82;100259.63;5128994;27;20513;-29
2022/03/25 10:54:26;;;;;;;13.55;8.60;;;;;;;22.69;19.15;100251.69;5130044;27;20027;-31
2022/03/25 10:56:54;;;;;;;12.20;8.50;;;;;;;23.59;18.17;100265.16;5110837;27;20043;-29
2022/03/25 10:59:27;;;;;;;12.73;8.73;;;;;;;22.73;18.08;100255.41;5111144;27;20073;-32
2022/03/25 11:01:54;;;;;;;15.55;8.68;;;;;;;22.03;17.93;100227.03;5110881;27;20031;-30
2022/03/25 11:04:20;;;;;;;19.75;10.65;;;;;;;22.64;18.15;100241.69;5110997;27;20110;-34
2022/03/25 11:06:47;;;;;;;101.20;47.63;;;;;;;23.34;16.97;100244.66;5129694;27;20157;-30
2022/03/25 11:09:13;;;;;;;14.32;8.80;;;;;;;23.20;17.67;100220.94;5111088;27;20027;-29
2022/03/25 11:11:44;;;;;;;14.95;8.80;;;;;;;22.32;18.12;100209.81;5110899;27;20023;-30
2022/03/25 11:14:09;;;;;;;20.13;12.38;;;;;;;22.96;17.18;100217.53;5129512;27;20030;-30
2022/03/25 11:16:40;;;;;;;12.02;8.45;;;;;;;23.11;16.39;100211.03;5129316;27;20035;-33
2022/03/25 11:19:09;;;;;;;13.68;8.32;;;;;;;22.79;17.53;100202.56;5110121;27;20023;-33
2022/03/25 11:21:39;;;;;;;18.52;11.70;;;;;;;22.80;18.32;100212.38;5110456;27;20031;-30